sensor_id;sensor_type;location;lat;lon;timestamp;pressure;altitude;pressure_sealevel;temperature;humidity
13050;BME280;6591;51.446;5.404;2023-07-30T00:01:24;100637.09;;;20.85;50.49
13050;BME280;6591;51.446;5.404;2023-07-30T00:03:52;100641.50;;;20.86;50.86
13050;BME280;6591;51.446;5.404;2023-07-30T00:06:19;100640.66;;;20.85;50.65
13050;BME280;6591;51.446;5.404;2023-07-30T00:08:46;100643.34;;;20.85;50.46
13050;BME280;6591;51.446;5.404;2023-07-30T00:11:13;100643.47;;;20.84;50.29
13050;BME280;6591;51.446;5.404;2023-07-30T00:13:40;100648.19;;;20.82;50.73
13050;BME280;6591;51.446;5.404;2023-07-30T00:16:07;100637.81;;;20.77;50.31
13050;BME280;6591;51.446;5.404;2023-07-30T00:18:37;100632.66;;;20.74;50.21
13050;BME280;6591;51.446;5.404;2023-07-30T00:21:05;100635.94;;;20.68;50.47
13050;BME280;6591;51.446;5.404;2023-07-30T00:23:32;100634.63;;;20.62;50.66
13050;BME280;6591;51.446;5.404;2023-07-30T00:25:59;100638.75;;;20.57;50.81
13050;BME280;6591;51.446;5.404;2023-07-30T00:28:26;100634.63;;;20.53;50.66
13050;BME280;6591;51.446;5.404;2023-07-30T00:30:53;100640.31;;;20.50;50.64
13050;BME280;6591;51.446;5.404;2023-07-30T00:33:21;100633.63;;;20.44;51.11
13050;BME280;6591;51.446;5.404;2023-07-30T00:35:53;100636.00;;;20.38;51.08
13050;BME280;6591;51.446;5.404;2023-07-30T00:38:21;100648.38;;;20.40;51.42
13050;BME280;6591;51.446;5.404;2023-07-30T00:40:48;100646.78;;;20.38;51.26
13050;BME280;6591;51.446;5.404;2023-07-30T00:43:15;100632.59;;;20.36;51.49
13050;BME280;6591;51.446;5.404;2023-07-30T00:45:44;100640.69;;;20.36;51.19
13050;BME280;6591;51.446;5.404;2023-07-30T00:48:13;100646.22;;;20.34;51.44
13050;BME280;6591;51.446;5.404;2023-07-30T00:50:41;100651.50;;;20.36;51.30
13050;BME280;6591;51.446;5.404;2023-07-30T00:53:11;100651.63;;;20.34;51.36
13050;BME280;6591;51.446;5.404;2023-07-30T00:55:41;100649.78;;;20.35;51.39
13050;BME280;6591;51.446;5.404;2023-07-30T00:58:09;100649.78;;;20.35;51.68
13050;BME280;6591;51.446;5.404;2023-07-30T01:00:39;100653.47;;;20.34;51.75
13050;BME280;6591;51.446;5.404;2023-07-30T01:03:09;100650.75;;;20.34;51.75
13050;BME280;6591;51.446;5.404;2023-07-30T01:05:36;100662.28;;;20.36;51.63
13050;BME280;6591;51.446;5.404;2023-07-30T01:08:04;100657.59;;;20.38;51.92
13050;BME280;6591;51.446;5.404;2023-07-30T01:10:32;100662.00;;;20.39;51.98
13050;BME280;6591;51.446;5.404;2023-07-30T01:13:03;100668.38;;;20.38;51.84
13050;BME280;6591;51.446;5.404;2023-07-30T01:15:31;100673.63;;;20.39;51.92
13050;BME280;6591;51.446;5.404;2023-07-30T01:17:59;100675.19;;;20.42;52.22
13050;BME280;6591;51.446;5.404;2023-07-30T01:20:32;100678.91;;;20.41;51.91
13050;BME280;6591;51.446;5.404;2023-07-30T01:22:59;100682.16;;;20.44;51.97
13050;BME280;6591;51.446;5.404;2023-07-30T01:25:36;100680.47;;;20.43;51.97
13050;BME280;6591;51.446;5.404;2023-07-30T01:28:06;100684.75;;;20.46;51.88
13050;BME280;6591;51.446;5.404;2023-07-30T01:30:41;100678.50;;;20.45;52.07
13050;BME280;6591;51.446;5.404;2023-07-30T01:33:11;100685.72;;;20.45;51.89
13050;BME280;6591;51.446;5.404;2023-07-30T01:35:41;100691.25;;;20.43;52.12
13050;BME280;6591;51.446;5.404;2023-07-30T01:38:10;100691.38;;;20.42;52.06
13050;BME280;6591;51.446;5.404;2023-07-30T01:40:38;100687.81;;;20.41;51.93
13050;BME280;6591;51.446;5.404;2023-07-30T01:43:07;100696.06;;;20.40;52.30
13050;BME280;6591;51.446;5.404;2023-07-30T01:45:36;100690.06;;;20.36;52.14
13050;BME280;6591;51.446;5.404;2023-07-30T01:48:03;100688.41;;;20.35;52.15
13050;BME280;6591;51.446;5.404;2023-07-30T01:50:31;100696.59;;;20.34;52.52
13050;BME280;6591;51.446;5.404;2023-07-30T01:52:58;100699.44;;;20.32;52.37
13050;BME280;6591;51.446;5.404;2023-07-30T01:55:25;100702.00;;;20.34;52.58
13050;BME280;6591;51.446;5.404;2023-07-30T01:57:52;100696.59;;;20.34;52.66
13050;BME280;6591;51.446;5.404;2023-07-30T02:00:19;100693.63;;;20.37;52.79
13050;BME280;6591;51.446;5.404;2023-07-30T02:02:46;100691.66;;;20.39;52.76
13050;BME280;6591;51.446;5.404;2023-07-30T02:05:13;100692.53;;;20.39;52.65
13050;BME280;6591;51.446;5.404;2023-07-30T02:07:44;100699.47;;;20.42;52.59
13050;BME280;6591;51.446;5.404;2023-07-30T02:10:11;100695.78;;;20.43;52.60
13050;BME280;6591;51.446;5.404;2023-07-30T02:12:38;100695.78;;;20.43;52.75
13050;BME280;6591;51.446;5.404;2023-07-30T02:15:06;100690.53;;;20.41;52.52
13050;BME280;6591;51.446;5.404;2023-07-30T02:17:33;100695.09;;;20.41;52.56
13050;BME280;6591;51.446;5.404;2023-07-30T02:20:00;100689.69;;;20.41;52.54
13050;BME280;6591;51.446;5.404;2023-07-30T02:22:27;100679.88;;;20.40;52.38
13050;BME280;6591;51.446;5.404;2023-07-30T02:24:54;100679.16;;;20.38;52.73
13050;BME280;6591;51.446;5.404;2023-07-30T02:27:24;100681.97;;;20.36;52.94
13050;BME280;6591;51.446;5.404;2023-07-30T02:29:51;100687.25;;;20.38;53.02
13050;BME280;6591;51.446;5.404;2023-07-30T02:32:18;100687.97;;;20.40;53.15
13050;BME280;6591;51.446;5.404;2023-07-30T02:34:45;100688.69;;;20.42;53.40
13050;BME280;6591;51.446;5.404;2023-07-30T02:37:12;100681.03;;;20.47;53.53
13050;BME280;6591;51.446;5.404;2023-07-30T02:39:39;100681.47;;;20.52;53.71
13050;BME280;6591;51.446;5.404;2023-07-30T02:42:08;100686.31;;;20.58;53.78
13050;BME280;6591;51.446;5.404;2023-07-30T02:44:35;100684.50;;;20.68;53.97
13050;BME280;6591;51.446;5.404;2023-07-30T02:47:02;100684.69;;;20.76;54.04
13050;BME280;6591;51.446;5.404;2023-07-30T02:49:29;100677.59;;;20.85;53.71
13050;BME280;6591;51.446;5.404;2023-07-30T02:51:56;100672.47;;;20.91;53.45
13050;BME280;6591;51.446;5.404;2023-07-30T02:54:23;100680.72;;;20.99;53.80
13050;BME280;6591;51.446;5.404;2023-07-30T02:56:50;100683.72;;;21.06;53.59
13050;BME280;6591;51.446;5.404;2023-07-30T02:59:18;100686.97;;;21.09;53.78
13050;BME280;6591;51.446;5.404;2023-07-30T03:01:45;100694.44;;;21.17;53.40
13050;BME280;6591;51.446;5.404;2023-07-30T03:04:13;100695.72;;;21.23;53.65
13050;BME280;6591;51.446;5.404;2023-07-30T03:06:40;100690.88;;;21.26;53.37
13050;BME280;6591;51.446;5.404;2023-07-30T03:09:08;100685.03;;;21.31;53.74
13050;BME280;6591;51.446;5.404;2023-07-30T03:11:35;100689.19;;;21.35;53.37
13050;BME280;6591;51.446;5.404;2023-07-30T03:14:02;100687.91;;;21.39;53.80
13050;BME280;6591;51.446;5.404;2023-07-30T03:16:30;100684.22;;;21.40;53.72
13050;BME280;6591;51.446;5.404;2023-07-30T03:18:57;100689.19;;;21.44;53.44
13050;BME280;6591;51.446;5.404;2023-07-30T03:21:24;100692.56;;;21.46;53.41
13050;BME280;6591;51.446;5.404;2023-07-30T03:23:51;100694.88;;;21.51;53.24
13050;BME280;6591;51.446;5.404;2023-07-30T03:26:18;100696.41;;;21.53;53.27
13050;BME280;6591;51.446;5.404;2023-07-30T03:28:46;100690.88;;;21.55;53.41
13050;BME280;6591;51.446;5.404;2023-07-30T03:31:13;100695.84;;;21.60;53.54
13050;BME280;6591;51.446;5.404;2023-07-30T03:33:41;100691.00;;;21.63;53.21
13050;BME280;6591;51.446;5.404;2023-07-30T03:36:13;100689.16;;;21.64;53.56
13050;BME280;6591;51.446;5.404;2023-07-30T03:38:42;100695.28;;;21.66;53.44
13050;BME280;6591;51.446;5.404;2023-07-30T03:41:10;100689.69;;;21.67;53.53
13050;BME280;6591;51.446;5.404;2023-07-30T03:43:38;100697.53;;;21.70;53.32
13050;BME280;6591;51.446;5.404;2023-07-30T03:46:05;100693.84;;;21.71;53.68
13050;BME280;6591;51.446;5.404;2023-07-30T03:48:32;100691.84;;;21.73;53.11
13050;BME280;6591;51.446;5.404;2023-07-30T03:50:59;100701.66;;;21.74;53.31
13050;BME280;6591;51.446;5.404;2023-07-30T03:53:26;100706.06;;;21.75;53.59
13050;BME280;6591;51.446;5.404;2023-07-30T03:55:54;100710.47;;;21.76;53.36
13050;BME280;6591;51.446;5.404;2023-07-30T03:58:21;100709.31;;;21.79;53.64
13050;BME280;6591;51.446;5.404;2023-07-30T04:00:50;100713.59;;;21.81;53.17
13050;BME280;6591;51.446;5.404;2023-07-30T04:03:17;100710.91;;;21.81;53.41
13050;BME280;6591;51.446;5.404;2023-07-30T04:05:44;100708.88;;;21.83;53.23
13050;BME280;6591;51.446;5.404;2023-07-30T04:08:11;100711.59;;;21.83;53.40
13050;BME280;6591;51.446;5.404;2023-07-30T04:10:39;100710.47;;;21.86;53.57
13050;BME280;6591;51.446;5.404;2023-07-30T04:13:05;100709.59;;;21.85;53.25
13050;BME280;6591;51.446;5.404;2023-07-30T04:15:35;100713.84;;;21.88;53.47
13050;BME280;6591;51.446;5.404;2023-07-30T04:18:02;100710.03;;;21.90;53.19
13050;BME280;6591;51.446;5.404;2023-07-30T04:20:29;100703.03;;;21.88;53.60
13050;BME280;6591;51.446;5.404;2023-07-30T04:22:56;100713.44;;;21.92;53.39
13050;BME280;6591;51.446;5.404;2023-07-30T04:25:25;100720.44;;;21.95;53.43
13050;BME280;6591;51.446;5.404;2023-07-30T04:27:52;100714.88;;;21.96;53.35
13050;BME280;6591;51.446;5.404;2023-07-30T04:30:19;100715.56;;;21.98;53.61
13050;BME280;6591;51.446;5.404;2023-07-30T04:32:47;100709.91;;;22.02;53.57
13050;BME280;6591;51.446;5.404;2023-07-30T04:35:14;100711.31;;;22.06;53.38
13050;BME280;6591;51.446;5.404;2023-07-30T04:37:41;100712.69;;;22.10;53.53
13050;BME280;6591;51.446;5.404;2023-07-30T04:40:10;100716.00;;;22.13;53.58
13050;BME280;6591;51.446;5.404;2023-07-30T04:42:37;100706.72;;;22.16;53.73
13050;BME280;6591;51.446;5.404;2023-07-30T04:45:05;100707.97;;;22.21;53.49
13050;BME280;6591;51.446;5.404;2023-07-30T04:47:35;100713.94;;;22.25;53.34
13050;BME280;6591;51.446;5.404;2023-07-30T04:50:02;100712.66;;;22.29;53.89
13050;BME280;6591;51.446;5.404;2023-07-30T04:52:30;100710.19;;;22.35;53.49
13050;BME280;6591;51.446;5.404;2023-07-30T04:54:57;100712.44;;;22.40;53.57
13050;BME280;6591;51.446;5.404;2023-07-30T04:57:25;100711.19;;;22.44;53.47
13050;BME280;6591;51.446;5.404;2023-07-30T04:59:53;100718.84;;;22.49;53.50
13050;BME280;6591;51.446;5.404;2023-07-30T05:02:20;100720.09;;;22.54;53.54
13050;BME280;6591;51.446;5.404;2023-07-30T05:04:47;100722.50;;;22.57;53.66
13050;BME280;6591;51.446;5.404;2023-07-30T05:07:15;100722.22;;;22.60;53.30
13050;BME280;6591;51.446;5.404;2023-07-30T05:09:42;100729.03;;;22.64;53.28
13050;BME280;6591;51.446;5.404;2023-07-30T05:12:09;100723.31;;;22.67;53.11
13050;BME280;6591;51.446;5.404;2023-07-30T05:14:36;100740.16;;;22.71;53.27
13050;BME280;6591;51.446;5.404;2023-07-30T05:17:04;100733.56;;;22.73;53.11
13050;BME280;6591;51.446;5.404;2023-07-30T05:19:31;100748.69;;;22.76;53.49
13050;BME280;6591;51.446;5.404;2023-07-30T05:21:59;100743.94;;;22.78;53.47
13050;BME280;6591;51.446;5.404;2023-07-30T05:24:28;100747.75;;;22.85;53.19
13050;BME280;6591;51.446;5.404;2023-07-30T05:26:56;100743.88;;;22.88;53.18
13050;BME280;6591;51.446;5.404;2023-07-30T05:29:23;100750.00;;;22.90;53.27
13050;BME280;6591;51.446;5.404;2023-07-30T05:31:50;100746.00;;;22.94;53.22
13050;BME280;6591;51.446;5.404;2023-07-30T05:34:17;100731.31;;;22.96;53.39
13050;BME280;6591;51.446;5.404;2023-07-30T05:36:44;100741.69;;;23.01;52.95
13050;BME280;6591;51.446;5.404;2023-07-30T05:39:11;100737.66;;;23.05;53.11
13050;BME280;6591;51.446;5.404;2023-07-30T05:41:38;100739.06;;;23.09;53.24
13050;BME280;6591;51.446;5.404;2023-07-30T05:44:06;100740.47;;;23.13;52.92
13050;BME280;6591;51.446;5.404;2023-07-30T05:46:33;100739.31;;;23.15;53.19
13050;BME280;6591;51.446;5.404;2023-07-30T05:49:00;100732.75;;;23.18;53.41
13050;BME280;6591;51.446;5.404;2023-07-30T05:51:27;100729.72;;;23.21;53.15
13050;BME280;6591;51.446;5.404;2023-07-30T05:53:54;100742.94;;;23.24;53.22
13050;BME280;6591;51.446;5.404;2023-07-30T05:56:21;100740.63;;;23.29;53.40
13050;BME280;6591;51.446;5.404;2023-07-30T05:58:49;100732.06;;;23.34;52.91
13050;BME280;6591;51.446;5.404;2023-07-30T06:01:16;100731.59;;;23.38;53.05
13050;BME280;6591;51.446;5.404;2023-07-30T06:03:43;100742.81;;;23.43;52.85
13050;BME280;6591;51.446;5.404;2023-07-30T06:06:10;100739.66;;;23.48;53.11
13050;BME280;6591;51.446;5.404;2023-07-30T06:08:37;100744.63;;;23.52;53.01
13050;BME280;6591;51.446;5.404;2023-07-30T06:11:04;100744.16;;;23.57;52.89
13050;BME280;6591;51.446;5.404;2023-07-30T06:13:31;100741.97;;;23.60;52.89
13050;BME280;6591;51.446;5.404;2023-07-30T06:15:59;100755.94;;;23.66;52.52
13050;BME280;6591;51.446;5.404;2023-07-30T06:18:26;100749.88;;;23.72;52.92
13050;BME280;6591;51.446;5.404;2023-07-30T06:20:55;100749.41;;;23.76;52.74
13050;BME280;6591;51.446;5.404;2023-07-30T06:23:22;100756.91;;;23.82;52.59
13050;BME280;6591;51.446;5.404;2023-07-30T06:25:49;100755.59;;;23.86;52.77
13050;BME280;6591;51.446;5.404;2023-07-30T06:28:16;100738.16;;;23.89;52.49
13050;BME280;6591;51.446;5.404;2023-07-30T06:30:43;100740.38;;;23.93;52.32
13050;BME280;6591;51.446;5.404;2023-07-30T06:33:10;100741.75;;;23.97;52.56
13050;BME280;6591;51.446;5.404;2023-07-30T06:35:37;100743.19;;;24.01;52.63
13050;BME280;6591;51.446;5.404;2023-07-30T06:38:08;100749.13;;;24.05;52.48
13050;BME280;6591;51.446;5.404;2023-07-30T06:40:35;100742.06;;;24.12;52.40
13050;BME280;6591;51.446;5.404;2023-07-30T06:43:02;100749.72;;;24.17;52.39
13050;BME280;6591;51.446;5.404;2023-07-30T06:45:29;100744.56;;;24.23;52.51
13050;BME280;6591;51.446;5.404;2023-07-30T06:47:56;100741.16;;;24.29;52.36
13050;BME280;6591;51.446;5.404;2023-07-30T06:50:24;100747.66;;;24.36;52.17
13050;BME280;6591;51.446;5.404;2023-07-30T06:52:51;100745.31;;;24.41;52.24
13050;BME280;6591;51.446;5.404;2023-07-30T06:55:18;100754.69;;;24.47;51.96
13050;BME280;6591;51.446;5.404;2023-07-30T06:57:45;100748.78;;;24.52;52.19
13050;BME280;6591;51.446;5.404;2023-07-30T07:00:13;100755.56;;;24.56;51.93
13050;BME280;6591;51.446;5.404;2023-07-30T07:02:41;100756.78;;;24.61;51.91
13050;BME280;6591;51.446;5.404;2023-07-30T07:05:08;100754.44;;;24.66;51.91
13050;BME280;6591;51.446;5.404;2023-07-30T07:07:36;100764.66;;;24.72;51.68
13050;BME280;6591;51.446;5.404;2023-07-30T07:10:04;100763.50;;;24.75;51.35
13050;BME280;6591;51.446;5.404;2023-07-30T07:12:32;100769.59;;;24.77;51.40
13050;BME280;6591;51.446;5.404;2023-07-30T07:14:59;100772.31;;;24.77;51.16
13050;BME280;6591;51.446;5.404;2023-07-30T07:17:28;100772.66;;;24.74;50.67
13050;BME280;6591;51.446;5.404;2023-07-30T07:19:56;100772.97;;;24.71;51.18
13050;BME280;6591;51.446;5.404;2023-07-30T07:22:24;100761.72;;;24.66;50.84
13050;BME280;6591;51.446;5.404;2023-07-30T07:24:52;100765.00;;;24.69;51.33
13050;BME280;6591;51.446;5.404;2023-07-30T07:27:19;100776.03;;;24.76;51.72
13050;BME280;6591;51.446;5.404;2023-07-30T07:29:46;100767.78;;;24.85;51.72
13050;BME280;6591;51.446;5.404;2023-07-30T07:32:13;100768.03;;;25.00;51.95
13050;BME280;6591;51.446;5.404;2023-07-30T07:34:40;100770.97;;;25.15;51.40
13050;BME280;6591;51.446;5.404;2023-07-30T07:37:07;100777.31;;;25.31;51.44
13050;BME280;6591;51.446;5.404;2023-07-30T07:39:34;100779.72;;;25.51;51.49
13050;BME280;6591;51.446;5.404;2023-07-30T07:42:02;100771.63;;;25.67;51.06
13050;BME280;6591;51.446;5.404;2023-07-30T07:44:29;100771.63;;;25.83;51.25
13050;BME280;6591;51.446;5.404;2023-07-30T07:46:56;100769.75;;;26.00;51.09
13050;BME280;6591;51.446;5.404;2023-07-30T07:49:23;100776.38;;;26.13;50.21
13050;BME280;6591;51.446;5.404;2023-07-30T07:51:50;100782.34;;;26.25;50.11
13050;BME280;6591;51.446;5.404;2023-07-30T07:54:17;100784.88;;;26.35;50.05
13050;BME280;6591;51.446;5.404;2023-07-30T07:56:44;100776.38;;;26.38;49.63
13050;BME280;6591;51.446;5.404;2023-07-30T07:59:11;100769.72;;;26.40;48.76
13050;BME280;6591;51.446;5.404;2023-07-30T08:01:38;100776.88;;;26.41;48.95
13050;BME280;6591;51.446;5.404;2023-07-30T08:04:06;100784.88;;;26.43;49.28
13050;BME280;6591;51.446;5.404;2023-07-30T08:06:33;100764.44;;;26.47;49.02
13050;BME280;6591;51.446;5.404;2023-07-30T08:09:00;100768.34;;;26.52;49.08
13050;BME280;6591;51.446;5.404;2023-07-30T08:11:27;100783.97;;;26.67;48.96
13050;BME280;6591;51.446;5.404;2023-07-30T08:13:54;100779.47;;;26.82;49.42
13050;BME280;6591;51.446;5.404;2023-07-30T08:16:21;100789.16;;;27.01;49.18
13050;BME280;6591;51.446;5.404;2023-07-30T08:18:49;100792.84;;;27.16;48.62
13050;BME280;6591;51.446;5.404;2023-07-30T08:21:16;100802.28;;;27.28;48.16
13050;BME280;6591;51.446;5.404;2023-07-30T08:23:46;100802.81;;;27.31;47.17
13050;BME280;6591;51.446;5.404;2023-07-30T08:26:13;100805.34;;;27.33;47.66
13050;BME280;6591;51.446;5.404;2023-07-30T08:28:40;100812.88;;;27.31;46.78
13050;BME280;6591;51.446;5.404;2023-07-30T08:31:07;100799.41;;;27.29;47.07
13050;BME280;6591;51.446;5.404;2023-07-30T08:33:34;100797.53;;;27.30;46.88
13050;BME280;6591;51.446;5.404;2023-07-30T08:36:01;100800.25;;;27.30;46.91
13050;BME280;6591;51.446;5.404;2023-07-30T08:38:28;100795.47;;;27.32;47.18
13050;BME280;6591;51.446;5.404;2023-07-30T08:40:57;100795.78;;;27.37;47.18
13050;BME280;6591;51.446;5.404;2023-07-30T08:43:24;100790.28;;;27.45;47.37
13050;BME280;6591;51.446;5.404;2023-07-30T08:45:51;100797.06;;;27.57;47.22
13050;BME280;6591;51.446;5.404;2023-07-30T08:48:18;100793.06;;;27.68;46.28
13050;BME280;6591;51.446;5.404;2023-07-30T08:50:48;100792.81;;;27.77;46.69
13050;BME280;6591;51.446;5.404;2023-07-30T08:53:15;100789.28;;;27.92;46.30
13050;BME280;6591;51.446;5.404;2023-07-30T08:55:42;100789.88;;;28.02;46.06
13050;BME280;6591;51.446;5.404;2023-07-30T08:58:11;100788.44;;;28.14;46.37
13050;BME280;6591;51.446;5.404;2023-07-30T09:00:40;100779.41;;;28.28;45.88
13050;BME280;6591;51.446;5.404;2023-07-30T09:03:09;100771.22;;;28.43;45.77
13050;BME280;6591;51.446;5.404;2023-07-30T09:05:38;100788.69;;;28.56;45.12
13050;BME280;6591;51.446;5.404;2023-07-30T09:08:06;100764.00;;;28.64;44.53
13050;BME280;6591;51.446;5.404;2023-07-30T09:10:37;100781.91;;;28.67;44.04
13050;BME280;6591;51.446;5.404;2023-07-30T09:13:04;100771.16;;;28.65;43.74
13050;BME280;6591;51.446;5.404;2023-07-30T09:15:33;100784.16;;;28.63;43.56
13050;BME280;6591;51.446;5.404;2023-07-30T09:18:01;100781.13;;;28.58;43.57
13050;BME280;6591;51.446;5.404;2023-07-30T09:20:41;100773.78;;;28.44;43.02
13050;BME280;6591;51.446;5.404;2023-07-30T09:23:11;100787.53;;;28.36;43.28
13050;BME280;6591;51.446;5.404;2023-07-30T09:25:39;100782.81;;;28.30;43.15
13050;BME280;6591;51.446;5.404;2023-07-30T09:28:06;100802.31;;;28.27;43.81
13050;BME280;6591;51.446;5.404;2023-07-30T09:30:34;100792.22;;;28.28;43.85
13050;BME280;6591;51.446;5.404;2023-07-30T09:33:04;100785.34;;;28.32;44.06
13050;BME280;6591;51.446;5.404;2023-07-30T09:35:33;100770.59;;;28.41;43.58
13050;BME280;6591;51.446;5.404;2023-07-30T09:38:03;100775.31;;;28.61;44.27
13050;BME280;6591;51.446;5.404;2023-07-30T09:40:35;100775.44;;;28.83;43.07
13050;BME280;6591;51.446;5.404;2023-07-30T09:43:04;100778.69;;;29.08;43.42
13050;BME280;6591;51.446;5.404;2023-07-30T09:45:36;100789.34;;;29.32;43.02
13050;BME280;6591;51.446;5.404;2023-07-30T09:48:05;100788.78;;;29.58;43.42
13050;BME280;6591;51.446;5.404;2023-07-30T09:50:37;100786.31;;;29.84;42.68
13050;BME280;6591;51.446;5.404;2023-07-30T09:53:05;100788.69;;;30.08;42.25
13050;BME280;6591;51.446;5.404;2023-07-30T09:55:32;100774.72;;;30.31;42.01
13050;BME280;6591;51.446;5.404;2023-07-30T09:57:59;100795.53;;;30.47;41.13
13050;BME280;6591;51.446;5.404;2023-07-30T10:00:29;100785.47;;;30.54;40.64
13050;BME280;6591;51.446;5.404;2023-07-30T10:02:59;100794.59;;;30.61;40.82
13050;BME280;6591;51.446;5.404;2023-07-30T10:05:33;100791.69;;;30.69;40.15
13050;BME280;6591;51.446;5.404;2023-07-30T10:08:12;100806.28;;;30.76;40.36
13050;BME280;6591;51.446;5.404;2023-07-30T10:10:42;100792.63;;;30.83;40.15
13050;BME280;6591;51.446;5.404;2023-07-30T10:13:12;100799.59;;;30.85;39.72
13050;BME280;6591;51.446;5.404;2023-07-30T10:15:40;100802.53;;;30.84;39.02
13050;BME280;6591;51.446;5.404;2023-07-30T10:18:07;100805.84;;;30.72;38.63
13050;BME280;6591;51.446;5.404;2023-07-30T10:20:37;100815.28;;;30.63;39.18
13050;BME280;6591;51.446;5.404;2023-07-30T10:23:05;100811.59;;;30.50;38.39
13050;BME280;6591;51.446;5.404;2023-07-30T10:25:43;100812.47;;;30.29;37.47
13050;BME280;6591;51.446;5.404;2023-07-30T10:28:32;100821.34;;;30.10;38.21
13050;BME280;6591;51.446;5.404;2023-07-30T10:31:04;100812.06;;;30.04;37.85
13050;BME280;6591;51.446;5.404;2023-07-30T10:36:17;100816.97;;;29.94;38.70
13050;BME280;6591;51.446;5.404;2023-07-30T10:38:44;100838.44;;;29.91;38.07
13050;BME280;6591;51.446;5.404;2023-07-30T10:41:14;100831.84;;;29.85;38.37
13050;BME280;6591;51.446;5.404;2023-07-30T10:43:48;100829.00;;;29.78;38.02
13050;BME280;6591;51.446;5.404;2023-07-30T10:46:18;100828.56;;;29.75;38.43
13050;BME280;6591;51.446;5.404;2023-07-30T10:48:48;100834.91;;;29.75;38.95
13050;BME280;6591;51.446;5.404;2023-07-30T10:51:19;100833.47;;;29.79;38.92
13050;BME280;6591;51.446;5.404;2023-07-30T10:53:48;100834.00;;;29.89;38.72
13050;BME280;6591;51.446;5.404;2023-07-30T10:56:21;100834.34;;;30.01;38.92
13050;BME280;6591;51.446;5.404;2023-07-30T10:58:52;100826.44;;;30.13;38.05
13050;BME280;6591;51.446;5.404;2023-07-30T11:01:20;100825.25;;;30.22;38.02
13050;BME280;6591;51.446;5.404;2023-07-30T11:03:50;100826.63;;;30.33;37.82
13050;BME280;6591;51.446;5.404;2023-07-30T11:06:26;100833.91;;;30.47;37.98
13050;BME280;6591;51.446;5.404;2023-07-30T11:08:55;100835.75;;;30.67;37.52
13050;BME280;6591;51.446;5.404;2023-07-30T11:11:22;100822.81;;;30.83;37.53
13050;BME280;6591;51.446;5.404;2023-07-30T11:13:51;100838.22;;;30.90;36.96
13050;BME280;6591;51.446;5.404;2023-07-30T11:16:19;100836.09;;;30.86;36.89
13050;BME280;6591;51.446;5.404;2023-07-30T11:18:47;100854.75;;;30.69;36.34
13050;BME280;6591;51.446;5.404;2023-07-30T11:21:16;100850.75;;;30.44;36.04
13050;BME280;6591;51.446;5.404;2023-07-30T11:23:45;100859.41;;;30.19;36.52
13050;BME280;6591;51.446;5.404;2023-07-30T11:26:18;100856.59;;;29.92;36.20
13050;BME280;6591;51.446;5.404;2023-07-30T11:28:46;100853.72;;;29.64;36.81
13050;BME280;6591;51.446;5.404;2023-07-30T11:31:17;100864.84;;;29.41;37.09
13050;BME280;6591;51.446;5.404;2023-07-30T11:33:48;100869.22;;;29.27;37.37
13050;BME280;6591;51.446;5.404;2023-07-30T11:36:18;100864.06;;;29.18;37.33
13050;BME280;6591;51.446;5.404;2023-07-30T11:38:47;100871.97;;;29.13;37.99
13050;BME280;6591;51.446;5.404;2023-07-30T11:41:15;100866.22;;;29.08;37.53
13050;BME280;6591;51.446;5.404;2023-07-30T11:43:43;100860.94;;;29.06;37.98
13050;BME280;6591;51.446;5.404;2023-07-30T11:46:16;100867.84;;;29.02;37.39
13050;BME280;6591;51.446;5.404;2023-07-30T11:48:47;100861.34;;;29.03;37.70
13050;BME280;6591;51.446;5.404;2023-07-30T11:51:28;100868.56;;;29.11;38.00
13050;BME280;6591;51.446;5.404;2023-07-30T11:53:58;100882.91;;;29.27;37.70
13050;BME280;6591;51.446;5.404;2023-07-30T11:59:04;100878.75;;;29.61;36.99
13050;BME280;6591;51.446;5.404;2023-07-30T12:01:35;100863.56;;;29.79;37.64
13050;BME280;6591;51.446;5.404;2023-07-30T12:04:05;100875.44;;;30.01;37.51
13050;BME280;6591;51.446;5.404;2023-07-30T12:06:48;100883.00;;;30.20;36.79
13050;BME280;6591;51.446;5.404;2023-07-30T12:09:18;100871.13;;;30.35;37.09
13050;BME280;6591;51.446;5.404;2023-07-30T12:11:55;100867.78;;;30.39;36.58
13050;BME280;6591;51.446;5.404;2023-07-30T12:14:44;100886.47;;;30.29;35.17
13050;BME280;6591;51.446;5.404;2023-07-30T12:17:19;100884.44;;;30.16;35.56
13050;BME280;6591;51.446;5.404;2023-07-30T12:19:46;100884.25;;;29.97;35.14
13050;BME280;6591;51.446;5.404;2023-07-30T12:22:13;100899.75;;;29.75;35.23
13050;BME280;6591;51.446;5.404;2023-07-30T12:24:42;100900.38;;;29.56;35.58
13050;BME280;6591;51.446;5.404;2023-07-30T12:27:09;100913.50;;;29.31;36.01
13050;BME280;6591;51.446;5.404;2023-07-30T12:29:36;100906.41;;;28.92;36.48
13050;BME280;6591;51.446;5.404;2023-07-30T12:32:03;100914.59;;;28.55;36.81
13050;BME280;6591;51.446;5.404;2023-07-30T12:34:31;100911.66;;;28.19;37.28
13050;BME280;6591;51.446;5.404;2023-07-30T12:36:58;100896.78;;;27.91;38.19
13050;BME280;6591;51.446;5.404;2023-07-30T12:39:26;100906.47;;;27.70;39.21
13050;BME280;6591;51.446;5.404;2023-07-30T12:41:55;100908.53;;;27.68;39.43
13050;BME280;6591;51.446;5.404;2023-07-30T12:44:22;100899.09;;;27.79;39.67
13050;BME280;6591;51.446;5.404;2023-07-30T12:46:49;100903.16;;;28.06;40.06
13050;BME280;6591;51.446;5.404;2023-07-30T12:49:16;100901.06;;;28.39;39.89
13050;BME280;6591;51.446;5.404;2023-07-30T12:51:43;100903.84;;;28.76;39.79
13050;BME280;6591;51.446;5.404;2023-07-30T12:54:10;100892.66;;;29.15;39.48
13050;BME280;6591;51.446;5.404;2023-07-30T12:56:37;100892.25;;;29.47;38.09
13050;BME280;6591;51.446;5.404;2023-07-30T12:59:04;100884.78;;;29.71;37.70
13050;BME280;6591;51.446;5.404;2023-07-30T13:01:31;100890.19;;;29.85;37.79
13050;BME280;6591;51.446;5.404;2023-07-30T13:03:58;100903.09;;;30.06;38.00
13050;BME280;6591;51.446;5.404;2023-07-30T13:06:26;100896.59;;;30.28;38.34
13050;BME280;6591;51.446;5.404;2023-07-30T13:08:53;100892.22;;;30.55;37.84
13050;BME280;6591;51.446;5.404;2023-07-30T13:11:20;100909.25;;;30.79;37.09